Primrose, Nebraska
Current Conditions -  °F | °C
As of 3:15 PM on Friday 24 Oct 2014 (Local Time) from KBVN Reporting Station
Clear Clear  
Wind Chill: 73°   Ceiling: Unl
Heat Index: 73°   Visibility: 10mi
Dew Point: 38°   Wind: 6mph
Humidity: 28%   Direction: 40°NE
Pressure: 29.93"   Gusts: NA
Location:  41.62°N, 98.24°W
Report Text: KBVN 242015Z AUTO 04005KT 10SM CLR 23/04 A2993 RMK AO2 T02300035
Loading
Personal Weather Stations






























Interactive Weather Map New forecast layout! Learn more

10-Day Weather Forecast

Advertisements
Track Severe Weather on mobile